sensor_id;sensor_type;location;lat;lon;timestamp;pressure;altitude;pressure_sealevel;temperature;humidity
55675;BME280;41562;44.330;23.802;2022-08-21T00:00:10;99546.50;;;22.72;97.12
55675;BME280;41562;44.330;23.802;2022-08-21T00:02:48;99546.28;;;22.80;96.45
55675;BME280;41562;44.330;23.802;2022-08-21T00:05:19;99544.69;;;22.79;97.22
55675;BME280;41562;44.330;23.802;2022-08-21T00:07:47;99541.03;;;22.68;97.27
55675;BME280;41562;44.330;23.802;2022-08-21T00:10:18;99531.63;;;22.66;96.46
55675;BME280;41562;44.330;23.802;2022-08-21T00:12:46;99530.47;;;22.67;96.76
55675;BME280;41562;44.330;23.802;2022-08-21T00:15:17;99522.78;;;22.72;96.28
55675;BME280;41562;44.330;23.802;2022-08-21T00:17:46;99518.34;;;22.91;95.60
55675;BME280;41562;44.330;23.802;2022-08-21T00:20:15;99527.38;;;22.95;94.94
55675;BME280;41562;44.330;23.802;2022-08-21T00:22:43;99522.53;;;22.81;96.33
55675;BME280;41562;44.330;23.802;2022-08-21T00:25:11;99520.53;;;22.78;95.93
55675;BME280;41562;44.330;23.802;2022-08-21T00:27:40;99518.59;;;22.78;96.39
55675;BME280;41562;44.330;23.802;2022-08-21T00:30:13;99512.34;;;22.78;96.07
55675;BME280;41562;44.330;23.802;2022-08-21T00:32:49;99510.38;;;22.75;97.12
55675;BME280;41562;44.330;23.802;2022-08-21T00:35:22;99507.69;;;22.78;97.01
55675;BME280;41562;44.330;23.802;2022-08-21T00:37:50;99502.22;;;22.78;96.86
55675;BME280;41562;44.330;23.802;2022-08-21T00:40:18;99492.44;;;22.74;97.78
55675;BME280;41562;44.330;23.802;2022-08-21T00:42:46;99487.00;;;22.74;98.09
55675;BME280;41562;44.330;23.802;2022-08-21T00:45:23;99485.88;;;22.78;97.52
55675;BME280;41562;44.330;23.802;2022-08-21T00:47:53;99485.47;;;22.76;98.25
55675;BME280;41562;44.330;23.802;2022-08-21T00:50:21;99482.47;;;22.85;97.30
55675;BME280;41562;44.330;23.802;2022-08-21T00:52:50;99481.34;;;22.90;97.68
55675;BME280;41562;44.330;23.802;2022-08-21T00:55:21;99486.78;;;22.90;97.13
55675;BME280;41562;44.330;23.802;2022-08-21T00:57:51;99500.75;;;22.84;97.70
55675;BME280;41562;44.330;23.802;2022-08-21T01:00:24;99492.88;;;22.76;99.04
55675;BME280;41562;44.330;23.802;2022-08-21T01:02:54;99499.09;;;22.76;98.06
55675;BME280;41562;44.330;23.802;2022-08-21T01:05:30;99494.47;;;22.80;97.49
55675;BME280;41562;44.330;23.802;2022-08-21T01:07:58;99483.47;;;22.73;99.30
55675;BME280;41562;44.330;23.802;2022-08-21T01:10:28;99473.03;;;23.49;92.74
55675;BME280;41562;44.330;23.802;2022-08-21T01:12:59;99467.78;;;23.71;89.69
55675;BME280;41562;44.330;23.802;2022-08-21T01:15:27;99453.59;;;24.09;88.22
55675;BME280;41562;44.330;23.802;2022-08-21T01:18:01;99451.03;;;24.27;87.02
55675;BME280;41562;44.330;23.802;2022-08-21T01:20:29;99449.22;;;24.52;84.75
55675;BME280;41562;44.330;23.802;2022-08-21T01:23:03;99452.38;;;24.58;83.79
55675;BME280;41562;44.330;23.802;2022-08-21T01:25:31;99459.56;;;24.94;82.19
55675;BME280;41562;44.330;23.802;2022-08-21T01:28:02;99460.28;;;24.88;82.80
55675;BME280;41562;44.330;23.802;2022-08-21T01:30:32;99455.47;;;24.60;85.37
55675;BME280;41562;44.330;23.802;2022-08-21T01:33:04;99457.16;;;24.78;83.11
55675;BME280;41562;44.330;23.802;2022-08-21T01:35:32;99456.78;;;24.87;82.63
55675;BME280;41562;44.330;23.802;2022-08-21T01:38:03;99459.56;;;24.94;82.03
55675;BME280;41562;44.330;23.802;2022-08-21T01:40:33;99459.44;;;24.73;83.50
55675;BME280;41562;44.330;23.802;2022-08-21T01:43:01;99467.63;;;24.62;83.63
55675;BME280;41562;44.330;23.802;2022-08-21T01:45:37;99463.22;;;24.43;84.87
55675;BME280;41562;44.330;23.802;2022-08-21T01:48:05;99457.75;;;24.40;85.54
55675;BME280;41562;44.330;23.802;2022-08-21T01:50:35;99455.47;;;24.60;84.25
55675;BME280;41562;44.330;23.802;2022-08-21T01:53:06;99457.47;;;24.63;84.06
55675;BME280;41562;44.330;23.802;2022-08-21T01:55:34;99457.53;;;24.77;83.57
55675;BME280;41562;44.330;23.802;2022-08-21T01:58:04;99459.81;;;24.68;83.53
55675;BME280;41562;44.330;23.802;2022-08-21T02:00:32;99453.53;;;24.57;84.35
55675;BME280;41562;44.330;23.802;2022-08-21T02:03:02;99453.78;;;24.30;85.62
55675;BME280;41562;44.330;23.802;2022-08-21T02:05:29;99452.41;;;24.65;83.75
55675;BME280;41562;44.330;23.802;2022-08-21T02:07:59;99461.69;;;24.50;85.10
55675;BME280;41562;44.330;23.802;2022-08-21T02:10:28;99456.94;;;24.36;85.67
55675;BME280;41562;44.330;23.802;2022-08-21T02:12:56;99465.22;;;24.54;84.95
55675;BME280;41562;44.330;23.802;2022-08-21T02:15:27;99467.63;;;24.62;84.10
55675;BME280;41562;44.330;23.802;2022-08-21T02:18:00;99464.78;;;24.44;85.69
55675;BME280;41562;44.330;23.802;2022-08-21T02:20:29;99462.47;;;24.47;85.72
55675;BME280;41562;44.330;23.802;2022-08-21T02:22:58;99462.41;;;24.36;85.94
55675;BME280;41562;44.330;23.802;2022-08-21T02:25:32;99453.72;;;24.23;86.76
55675;BME280;41562;44.330;23.802;2022-08-21T02:28:02;99449.72;;;24.07;88.54
55675;BME280;41562;44.330;23.802;2022-08-21T02:30:38;99455.59;;;24.09;88.44
55675;BME280;41562;44.330;23.802;2022-08-21T02:33:07;99453.13;;;24.51;85.76
55675;BME280;41562;44.330;23.802;2022-08-21T02:35:35;99442.94;;;24.48;85.99
55675;BME280;41562;44.330;23.802;2022-08-21T02:38:10;99450.34;;;24.48;85.55
55675;BME280;41562;44.330;23.802;2022-08-21T02:40:40;99447.91;;;24.28;87.06
55675;BME280;41562;44.330;23.802;2022-08-21T02:43:20;99450.56;;;24.18;87.08
55675;BME280;41562;44.330;23.802;2022-08-21T02:45:51;99447.75;;;24.07;88.34
55675;BME280;41562;44.330;23.802;2022-08-21T02:48:21;99454.34;;;23.99;88.94
55675;BME280;41562;44.330;23.802;2022-08-21T02:50:57;99441.47;;;24.03;88.14
55675;BME280;41562;44.330;23.802;2022-08-21T02:53:28;99446.75;;;24.29;86.25
55675;BME280;41562;44.330;23.802;2022-08-21T02:56:00;99448.16;;;24.09;87.71
55675;BME280;41562;44.330;23.802;2022-08-21T02:58:34;99450.63;;;24.28;86.25
55675;BME280;41562;44.330;23.802;2022-08-21T03:01:04;99449.50;;;24.33;85.60
55675;BME280;41562;44.330;23.802;2022-08-21T03:03:32;99458.88;;;24.35;85.76
55675;BME280;41562;44.330;23.802;2022-08-21T03:05:59;99452.88;;;24.12;86.89
55675;BME280;41562;44.330;23.802;2022-08-21T03:08:26;99458.16;;;23.87;88.65
55675;BME280;41562;44.330;23.802;2022-08-21T03:10:57;99470.59;;;23.81;89.42
55675;BME280;41562;44.330;23.802;2022-08-21T03:13:25;99471.44;;;23.89;89.22
55675;BME280;41562;44.330;23.802;2022-08-21T03:15:55;99487.00;;;23.85;88.95
55675;BME280;41562;44.330;23.802;2022-08-21T03:18:24;99483.53;;;23.88;88.68
55675;BME280;41562;44.330;23.802;2022-08-21T03:20:51;99488.47;;;24.19;86.65
55675;BME280;41562;44.330;23.802;2022-08-21T03:23:19;99494.22;;;24.11;87.22
55675;BME280;41562;44.330;23.802;2022-08-21T03:25:46;99473.19;;;24.18;86.55
55675;BME280;41562;44.330;23.802;2022-08-21T03:28:16;99472.72;;;24.05;87.63
55675;BME280;41562;44.330;23.802;2022-08-21T03:30:45;99470.84;;;24.17;88.47
55675;BME280;41562;44.330;23.802;2022-08-21T03:33:12;99470.19;;;24.30;86.08
55675;BME280;41562;44.330;23.802;2022-08-21T03:35:45;99475.63;;;24.30;87.55
55675;BME280;41562;44.330;23.802;2022-08-21T03:38:14;99466.63;;;24.23;86.49
55675;BME280;41562;44.330;23.802;2022-08-21T03:40:42;99469.38;;;24.26;86.18
55675;BME280;41562;44.330;23.802;2022-08-21T03:43:10;99477.94;;;24.21;85.83
55675;BME280;41562;44.330;23.802;2022-08-21T03:45:38;99480.50;;;24.03;87.22
55675;BME280;41562;44.330;23.802;2022-08-21T03:48:06;99479.94;;;23.77;89.49
55675;BME280;41562;44.330;23.802;2022-08-21T03:50:43;99485.28;;;24.14;87.04
55675;BME280;41562;44.330;23.802;2022-08-21T03:53:12;99478.19;;;24.09;87.00
55675;BME280;41562;44.330;23.802;2022-08-21T03:55:50;99464.56;;;24.13;86.72
55675;BME280;41562;44.330;23.802;2022-08-21T03:58:22;99466.72;;;23.86;88.29
55675;BME280;41562;44.330;23.802;2022-08-21T04:00:51;99469.66;;;23.63;89.36
55675;BME280;41562;44.330;23.802;2022-08-21T04:03:22;99464.78;;;23.86;88.05
55675;BME280;41562;44.330;23.802;2022-08-21T04:05:50;99471.31;;;23.75;89.28
55675;BME280;41562;44.330;23.802;2022-08-21T04:08:21;99473.56;;;23.65;89.96
55675;BME280;41562;44.330;23.802;2022-08-21T04:10:55;99479.22;;;23.87;88.50
55675;BME280;41562;44.330;23.802;2022-08-21T04:13:24;99483.03;;;23.79;89.04
55675;BME280;41562;44.330;23.802;2022-08-21T04:15:52;99486.50;;;23.72;89.07
55675;BME280;41562;44.330;23.802;2022-08-21T04:18:23;99488.50;;;23.79;88.79
55675;BME280;41562;44.330;23.802;2022-08-21T04:20:51;99491.72;;;23.88;88.49
55675;BME280;41562;44.330;23.802;2022-08-21T04:23:20;99501.47;;;23.89;88.40
55675;BME280;41562;44.330;23.802;2022-08-21T04:25:51;99505.91;;;24.08;87.03
55675;BME280;41562;44.330;23.802;2022-08-21T04:28:21;99507.59;;;24.23;86.21
55675;BME280;41562;44.330;23.802;2022-08-21T04:30:55;99514.75;;;24.38;85.50
55675;BME280;41562;44.330;23.802;2022-08-21T04:33:22;99510.66;;;24.18;86.60
55675;BME280;41562;44.330;23.802;2022-08-21T04:35:50;99513.13;;;24.30;86.38
55675;BME280;41562;44.330;23.802;2022-08-21T04:38:17;99517.00;;;24.25;86.61
55675;BME280;41562;44.330;23.802;2022-08-21T04:40:51;99512.59;;;24.17;87.07
55675;BME280;41562;44.330;23.802;2022-08-21T04:43:18;99518.44;;;24.12;86.95
55675;BME280;41562;44.330;23.802;2022-08-21T04:45:47;99516.44;;;24.09;87.26
55675;BME280;41562;44.330;23.802;2022-08-21T04:48:18;99502.75;;;24.02;88.02
55675;BME280;41562;44.330;23.802;2022-08-21T04:50:50;99502.84;;;24.16;86.77
55675;BME280;41562;44.330;23.802;2022-08-21T04:53:41;99498.94;;;24.14;87.00
55675;BME280;41562;44.330;23.802;2022-08-21T04:56:17;99497.31;;;24.09;86.94
55675;BME280;41562;44.330;23.802;2022-08-21T04:58:46;99492.81;;;24.31;85.79
55675;BME280;41562;44.330;23.802;2022-08-21T05:01:15;99498.44;;;24.01;88.17
55675;BME280;41562;44.330;23.802;2022-08-21T05:03:48;99496.75;;;24.33;85.94
55675;BME280;41562;44.330;23.802;2022-08-21T05:06:20;99499.91;;;23.88;88.64
55675;BME280;41562;44.330;23.802;2022-08-21T05:08:51;99496.84;;;23.96;88.69
55675;BME280;41562;44.330;23.802;2022-08-21T05:11:33;99506.13;;;24.32;86.34
55675;BME280;41562;44.330;23.802;2022-08-21T05:14:04;99511.22;;;24.37;85.63
55675;BME280;41562;44.330;23.802;2022-08-21T05:16:33;99503.00;;;24.34;86.15
55675;BME280;41562;44.330;23.802;2022-08-21T05:19:08;99507.28;;;24.31;85.96
55675;BME280;41562;44.330;23.802;2022-08-21T05:21:39;99514.31;;;24.36;85.61
55675;BME280;41562;44.330;23.802;2022-08-21T05:24:16;99520.16;;;24.27;86.24
55675;BME280;41562;44.330;23.802;2022-08-21T05:26:46;99513.19;;;24.40;85.38
55675;BME280;41562;44.330;23.802;2022-08-21T05:29:14;99509.59;;;24.29;84.67
55675;BME280;41562;44.330;23.802;2022-08-21T05:31:43;99512.09;;;24.52;84.21
55675;BME280;41562;44.330;23.802;2022-08-21T05:34:13;99507.00;;;24.51;84.33
55675;BME280;41562;44.330;23.802;2022-08-21T05:36:43;99506.97;;;24.43;84.47
55675;BME280;41562;44.330;23.802;2022-08-21T05:39:11;99506.16;;;24.39;84.74
55675;BME280;41562;44.330;23.802;2022-08-21T05:41:41;99500.66;;;24.32;86.03
55675;BME280;41562;44.330;23.802;2022-08-21T05:44:09;99498.34;;;24.41;85.31
55675;BME280;41562;44.330;23.802;2022-08-21T05:46:38;99497.66;;;24.52;84.87
55675;BME280;41562;44.330;23.802;2022-08-21T05:49:06;99496.53;;;24.67;84.71
55675;BME280;41562;44.330;23.802;2022-08-21T05:51:37;99498.53;;;24.73;84.13
55675;BME280;41562;44.330;23.802;2022-08-21T05:54:12;99500.00;;;24.53;85.06
55675;BME280;41562;44.330;23.802;2022-08-21T05:56:42;99500.72;;;24.43;85.53
55675;BME280;41562;44.330;23.802;2022-08-21T05:59:10;99496.03;;;24.40;85.23
55675;BME280;41562;44.330;23.802;2022-08-21T06:01:37;99502.97;;;24.30;86.42
55675;BME280;41562;44.330;23.802;2022-08-21T06:04:07;99507.38;;;24.46;85.57
55675;BME280;41562;44.330;23.802;2022-08-21T06:06:35;99501.53;;;24.51;85.09
55675;BME280;41562;44.330;23.802;2022-08-21T06:09:05;99509.41;;;24.66;84.72
55675;BME280;41562;44.330;23.802;2022-08-21T06:11:33;99505.78;;;24.44;85.92
55675;BME280;41562;44.330;23.802;2022-08-21T06:14:01;99507.75;;;24.44;85.90
55675;BME280;41562;44.330;23.802;2022-08-21T06:16:29;99510.81;;;24.35;87.10
55675;BME280;41562;44.330;23.802;2022-08-21T06:19:03;99507.28;;;24.31;86.98
55675;BME280;41562;44.330;23.802;2022-08-21T06:21:34;99508.91;;;24.39;86.05
55675;BME280;41562;44.330;23.802;2022-08-21T06:24:03;99511.22;;;24.37;86.20
55675;BME280;41562;44.330;23.802;2022-08-21T06:26:34;99506.50;;;24.34;86.91
55675;BME280;41562;44.330;23.802;2022-08-21T06:29:05;99508.84;;;24.32;86.93
55675;BME280;41562;44.330;23.802;2022-08-21T06:31:32;99503.34;;;24.29;87.13
55675;BME280;41562;44.330;23.802;2022-08-21T06:34:03;99501.91;;;24.49;85.70
55675;BME280;41562;44.330;23.802;2022-08-21T06:36:33;99504.69;;;24.53;85.52
55675;BME280;41562;44.330;23.802;2022-08-21T06:39:00;99512.56;;;24.65;84.64
55675;BME280;41562;44.330;23.802;2022-08-21T06:41:42;99511.78;;;24.64;84.65
55675;BME280;41562;44.330;23.802;2022-08-21T06:44:15;99509.44;;;24.70;84.31
55675;BME280;41562;44.330;23.802;2022-08-21T06:46:42;99516.53;;;24.85;83.58
55675;BME280;41562;44.330;23.802;2022-08-21T06:49:14;99514.22;;;24.87;83.93
55675;BME280;41562;44.330;23.802;2022-08-21T06:51:47;99514.75;;;25.14;88.25
55675;BME280;41562;44.330;23.802;2022-08-21T06:54:15;99510.28;;;24.81;88.02
55675;BME280;41562;44.330;23.802;2022-08-21T06:56:42;99509.72;;;25.34;93.19
55675;BME280;41562;44.330;23.802;2022-08-21T06:59:14;99512.16;;;25.60;85.06
55675;BME280;41562;44.330;23.802;2022-08-21T07:01:48;99514.09;;;25.88;86.78
55675;BME280;41562;44.330;23.802;2022-08-21T07:04:18;99509.44;;;26.24;95.18
55675;BME280;41562;44.330;23.802;2022-08-21T07:06:46;99517.63;;;25.60;83.14
55675;BME280;41562;44.330;23.802;2022-08-21T07:09:16;99518.31;;;25.36;84.86
55675;BME280;41562;44.330;23.802;2022-08-21T07:11:52;99513.69;;;25.68;85.65
55675;BME280;41562;44.330;23.802;2022-08-21T07:14:24;99513.72;;;25.82;96.04
55675;BME280;41562;44.330;23.802;2022-08-21T07:16:54;99516.44;;;26.46;90.15
55675;BME280;41562;44.330;23.802;2022-08-21T07:19:22;99514.34;;;26.82;89.47
55675;BME280;41562;44.330;23.802;2022-08-21T07:21:49;99507.44;;;26.21;78.77
55675;BME280;41562;44.330;23.802;2022-08-21T07:24:19;99513.31;;;25.77;81.25
55675;BME280;41562;44.330;23.802;2022-08-21T07:26:46;99511.00;;;25.86;80.39
55675;BME280;41562;44.330;23.802;2022-08-21T07:29:14;99512.53;;;25.76;78.43
55675;BME280;41562;44.330;23.802;2022-08-21T07:31:44;99504.31;;;25.87;79.41
55675;BME280;41562;44.330;23.802;2022-08-21T07:34:18;99503.53;;;25.93;79.13
55675;BME280;41562;44.330;23.802;2022-08-21T07:36:49;99504.34;;;25.80;79.15
55675;BME280;41562;44.330;23.802;2022-08-21T07:39:20;99510.97;;;25.82;80.93
55675;BME280;41562;44.330;23.802;2022-08-21T07:41:50;99502.34;;;25.80;79.40
55675;BME280;41562;44.330;23.802;2022-08-21T07:44:21;99502.69;;;25.50;81.44
55675;BME280;41562;44.330;23.802;2022-08-21T07:46:49;99501.09;;;25.32;81.71
55675;BME280;41562;44.330;23.802;2022-08-21T07:49:16;99497.97;;;25.37;81.70
55675;BME280;41562;44.330;23.802;2022-08-21T07:51:44;99500.72;;;25.33;81.86
55675;BME280;41562;44.330;23.802;2022-08-21T07:54:11;99504.69;;;25.57;80.29
55675;BME280;41562;44.330;23.802;2022-08-21T07:56:49;99506.66;;;25.81;79.47
55675;BME280;41562;44.330;23.802;2022-08-21T07:59:16;99505.88;;;26.02;77.03
55675;BME280;41562;44.330;23.802;2022-08-21T08:01:43;99509.00;;;26.18;78.01
55675;BME280;41562;44.330;23.802;2022-08-21T08:04:11;99507.44;;;26.42;76.77
55675;BME280;41562;44.330;23.802;2022-08-21T08:06:41;99509.78;;;26.47;75.67
55675;BME280;41562;44.330;23.802;2022-08-21T08:09:08;99505.84;;;26.52;76.14
55675;BME280;41562;44.330;23.802;2022-08-21T08:11:36;99505.03;;;26.58;75.56
55675;BME280;41562;44.330;23.802;2022-08-21T08:14:09;99504.28;;;26.43;76.36
55675;BME280;41562;44.330;23.802;2022-08-21T08:16:36;99504.72;;;26.28;75.76
55675;BME280;41562;44.330;23.802;2022-08-21T08:19:06;99496.91;;;26.30;76.51
55675;BME280;41562;44.330;23.802;2022-08-21T08:21:36;99502.34;;;26.33;75.88
55675;BME280;41562;44.330;23.802;2022-08-21T08:24:06;99496.88;;;26.33;75.76
55675;BME280;41562;44.330;23.802;2022-08-21T08:26:48;99492.56;;;26.15;76.47
55675;BME280;41562;44.330;23.802;2022-08-21T08:29:22;99493.34;;;26.33;74.68
55675;BME280;41562;44.330;23.802;2022-08-21T08:31:50;99493.75;;;26.24;74.18
55675;BME280;41562;44.330;23.802;2022-08-21T08:34:21;99496.47;;;26.21;75.84
55675;BME280;41562;44.330;23.802;2022-08-21T08:36:51;99488.66;;;26.23;75.91
55675;BME280;41562;44.330;23.802;2022-08-21T08:39:21;99492.16;;;26.13;76.95
55675;BME280;41562;44.330;23.802;2022-08-21T08:42:11;99486.31;;;26.25;75.10
55675;BME280;41562;44.330;23.802;2022-08-21T08:45:09;99480.00;;;26.49;75.43
55675;BME280;41562;44.330;23.802;2022-08-21T08:47:44;99475.16;;;26.85;73.70
55675;BME280;41562;44.330;23.802;2022-08-21T08:50:18;99483.31;;;27.06;72.79
55675;BME280;41562;44.330;23.802;2022-08-21T08:52:52;99477.88;;;26.96;72.79
55675;BME280;41562;44.330;23.802;2022-08-21T08:55:44;99477.50;;;26.83;72.33
55675;BME280;41562;44.330;23.802;2022-08-21T08:58:16;99483.78;;;26.87;72.42
55675;BME280;41562;44.330;23.802;2022-08-21T09:00:51;99485.34;;;26.92;72.61
55675;BME280;41562;44.330;23.802;2022-08-21T09:03:25;99488.47;;;26.97;72.53
55675;BME280;41562;44.330;23.802;2022-08-21T09:08:36;99480.88;;;27.23;71.54
55675;BME280;41562;44.330;23.802;2022-08-21T09:11:10;99478.69;;;27.62;70.01
55675;BME280;41562;44.330;23.802;2022-08-21T09:26:44;99465.50;;;28.32;64.84
55675;BME280;41562;44.330;23.802;2022-08-21T09:29:15;99461.81;;;28.46;63.59
55675;BME280;41562;44.330;23.802;2022-08-21T09:31:45;99460.81;;;28.29;62.58
55675;BME280;41562;44.330;23.802;2022-08-21T09:34:23;99467.09;;;27.85;62.39
55675;BME280;41562;44.330;23.802;2022-08-21T09:36:50;99472.94;;;27.94;64.01
55675;BME280;41562;44.330;23.802;2022-08-21T09:39:31;99469.59;;;27.69;63.01
55675;BME280;41562;44.330;23.802;2022-08-21T09:42:09;99476.75;;;28.04;63.91
55675;BME280;41562;44.330;23.802;2022-08-21T09:44:40;99464.94;;;28.07;63.90
55675;BME280;41562;44.330;23.802;2022-08-21T09:47:11;99474.84;;;27.97;63.90
55675;BME280;41562;44.330;23.802;2022-08-21T09:49:41;99457.03;;;28.12;64.68
55675;BME280;41562;44.330;23.802;2022-08-21T09:54:44;99457.69;;;28.27;63.76
55675;BME280;41562;44.330;23.802;2022-08-21T09:57:14;99462.13;;;28.17;62.72
55675;BME280;41562;44.330;23.802;2022-08-21T09:59:51;99455.38;;;28.25;63.22
55675;BME280;41562;44.330;23.802;2022-08-21T10:04:50;99454.72;;;28.48;63.08
55675;BME280;41562;44.330;23.802;2022-08-21T10:07:22;99446.59;;;28.37;63.27
55675;BME280;41562;44.330;23.802;2022-08-21T10:09:59;99438.69;;;28.39;63.99
55675;BME280;41562;44.330;23.802;2022-08-21T10:12:48;99438.03;;;28.28;63.20
55675;BME280;41562;44.330;23.802;2022-08-21T10:15:22;99437.03;;;28.08;64.64
55675;BME280;41562;44.330;23.802;2022-08-21T10:21:04;99429.63;;;28.05;66.61
55675;BME280;41562;44.330;23.802;2022-08-21T10:23:26;99422.19;;;28.39;66.91
55675;BME280;41562;44.330;23.802;2022-08-21T10:26:02;99425.28;;;28.45;64.99
55675;BME280;41562;44.330;23.802;2022-08-21T10:31:37;99414.38;;;28.34;66.65
55675;BME280;41562;44.330;23.802;2022-08-21T10:39:34;99414.59;;;28.51;65.29
55675;BME280;41562;44.330;23.802;2022-08-21T10:44:47;99413.13;;;28.73;63.45
55675;BME280;41562;44.330;23.802;2022-08-21T10:47:41;99399.00;;;28.40;63.31
55675;BME280;41562;44.330;23.802;2022-08-21T10:50:10;99410.63;;;28.86;61.55
55675;BME280;41562;44.330;23.802;2022-08-21T10:55:21;99398.59;;;28.76;62.75
55675;BME280;41562;44.330;23.802;2022-08-21T10:57:58;99388.56;;;28.89;61.57
55675;BME280;41562;44.330;23.802;2022-08-21T11:00:28;99385.09;;;29.12;60.00
55675;BME280;41562;44.330;23.802;2022-08-21T11:02:58;99394.50;;;29.14;60.57
55675;BME280;41562;44.330;23.802;2022-08-21T11:05:33;99384.91;;;29.23;58.75
55675;BME280;41562;44.330;23.802;2022-08-21T11:08:12;99388.75;;;28.75;60.39
55675;BME280;41562;44.330;23.802;2022-08-21T11:10:47;99373.78;;;28.46;60.53
55675;BME280;41562;44.330;23.802;2022-08-21T11:13:40;99379.16;;;28.87;60.31
55675;BME280;41562;44.330;23.802;2022-08-21T11:16:18;99374.56;;;29.03;59.49
55675;BME280;41562;44.330;23.802;2022-08-21T11:21:46;99376.09;;;29.08;58.43
55675;BME280;41562;44.330;23.802;2022-08-21T11:24:34;99379.00;;;28.97;59.20
55675;BME280;41562;44.330;23.802;2022-08-21T11:27:09;99375.16;;;28.61;59.15
55675;BME280;41562;44.330;23.802;2022-08-21T11:29:44;99376.09;;;28.81;59.62
55675;BME280;41562;44.330;23.802;2022-08-21T11:39:58;99354.84;;;29.08;56.53
55675;BME280;41562;44.330;23.802;2022-08-21T11:42:36;99345.97;;;28.97;56.31
55675;BME280;41562;44.330;23.802;2022-08-21T11:45:22;99347.81;;;28.77;56.53
55675;BME280;41562;44.330;23.802;2022-08-21T11:48:04;99339.84;;;28.86;56.80
55675;BME280;41562;44.330;23.802;2022-08-21T11:50:37;99344.06;;;28.94;58.43
55675;BME280;41562;44.330;23.802;2022-08-21T11:53:11;99340.63;;;29.13;55.86
55675;BME280;41562;44.330;23.802;2022-08-21T11:55:52;99339.06;;;29.36;56.49
55675;BME280;41562;44.330;23.802;2022-08-21T12:00:54;99332.09;;;28.77;56.41
55675;BME280;41562;44.330;23.802;2022-08-21T12:03:29;99337.50;;;28.85;54.28
55675;BME280;41562;44.330;23.802;2022-08-21T12:08:34;99334.94;;;28.97;56.45
55675;BME280;41562;44.330;23.802;2022-08-21T12:11:09;99336.78;;;29.07;54.61
55675;BME280;41562;44.330;23.802;2022-08-21T12:13:40;99329.69;;;29.33;53.35
55675;BME280;41562;44.330;23.802;2022-08-21T12:16:14;99333.94;;;29.38;54.10
55675;BME280;41562;44.330;23.802;2022-08-21T12:18:42;99331.97;;;29.11;53.40
55675;BME280;41562;44.330;23.802;2022-08-21T12:22:12;99335.94;;;29.10;53.62
55675;BME280;41562;44.330;23.802;2022-08-21T12:29:36;99315.66;;;28.74;53.48
55675;BME280;41562;44.330;23.802;2022-08-21T12:34:42;99321.59;;;28.69;51.62
55675;BME280;41562;44.330;23.802;2022-08-21T12:37:27;99316.81;;;28.73;51.91
55675;BME280;41562;44.330;23.802;2022-08-21T12:40:00;99323.44;;;28.79;50.90
55675;BME280;41562;44.330;23.802;2022-08-21T12:42:34;99317.94;;;28.79;52.36
55675;BME280;41562;44.330;23.802;2022-08-21T12:45:07;99318.94;;;28.62;54.42
55675;BME280;41562;44.330;23.802;2022-08-21T12:47:46;99323.25;;;28.63;54.09
55675;BME280;41562;44.330;23.802;2022-08-21T12:53:10;99311.28;;;28.46;54.37
55675;BME280;41562;44.330;23.802;2022-08-21T12:55:47;99309.69;;;28.49;53.42
55675;BME280;41562;44.330;23.802;2022-08-21T12:58:21;99304.13;;;28.25;56.09
55675;BME280;41562;44.330;23.802;2022-08-21T13:01:05;99305.94;;;28.35;55.22
55675;BME280;41562;44.330;23.802;2022-08-21T13:03:34;99302.72;;;28.40;55.11
55675;BME280;41562;44.330;23.802;2022-08-21T13:06:06;99292.88;;;28.70;54.49
55675;BME280;41562;44.330;23.802;2022-08-21T13:08:34;99291.16;;;28.83;54.17
55675;BME280;41562;44.330;23.802;2022-08-21T13:11:07;99291.16;;;28.83;54.03
55675;BME280;41562;44.330;23.802;2022-08-21T13:13:48;99297.66;;;28.93;55.83
55675;BME280;41562;44.330;23.802;2022-08-21T13:16:26;99286.53;;;28.73;55.47
55675;BME280;41562;44.330;23.802;2022-08-21T13:19:02;99294.72;;;29.03;54.24
55675;BME280;41562;44.330;23.802;2022-08-21T13:21:40;99290.09;;;29.00;53.97
55675;BME280;41562;44.330;23.802;2022-08-21T13:24:16;99293.53;;;28.81;54.34
55675;BME280;41562;44.330;23.802;2022-08-21T13:29:59;99293.28;;;28.42;56.77
55675;BME280;41562;44.330;23.802;2022-08-21T13:32:37;99288.63;;;28.38;56.52
55675;BME280;41562;44.330;23.802;2022-08-21T13:35:16;99283.22;;;28.31;56.40
55675;BME280;41562;44.330;23.802;2022-08-21T13:37:50;99288.91;;;28.17;57.39
55675;BME280;41562;44.330;23.802;2022-08-21T13:40:21;99284.03;;;28.28;56.59
55675;BME280;41562;44.330;23.802;2022-08-21T13:42:50;99279.00;;;28.23;56.21
55675;BME280;41562;44.330;23.802;2022-08-21T13:45:29;99279.81;;;28.20;55.62
55675;BME280;41562;44.330;23.802;2022-08-21T13:47:57;99278.63;;;28.21;56.80
55675;BME280;41562;44.330;23.802;2022-08-21T13:50:32;99270.09;;;28.12;56.55
55675;BME280;41562;44.330;23.802;2022-08-21T13:53:04;99265.88;;;28.04;57.88
55675;BME280;41562;44.330;23.802;2022-08-21T13:58:03;99264.06;;;28.24;57.80
55675;BME280;41562;44.330;23.802;2022-08-21T14:00:34;99262.78;;;28.32;57.56
55675;BME280;41562;44.330;23.802;2022-08-21T14:03:08;99251.13;;;28.52;56.41
55675;BME280;41562;44.330;23.802;2022-08-21T14:05:46;99244.38;;;28.53;57.50
55675;BME280;41562;44.330;23.802;2022-08-21T14:08:26;99244.81;;;28.51;58.97
55675;BME280;41562;44.330;23.802;2022-08-21T14:11:02;99246.69;;;28.58;56.38
55675;BME280;41562;44.330;23.802;2022-08-21T14:16:26;99238.78;;;28.60;57.54
55675;BME280;41562;44.330;23.802;2022-08-21T14:18:53;99242.22;;;28.40;57.37
55675;BME280;41562;44.330;23.802;2022-08-21T14:21:40;99247.72;;;28.40;57.79
55675;BME280;41562;44.330;23.802;2022-08-21T14:24:11;99245.41;;;28.39;57.76
55675;BME280;41562;44.330;23.802;2022-08-21T14:26:45;99248.22;;;28.59;56.98